createdAt,value
2018-02-21T00:01:31.284Z,78.07
2018-02-21T00:04:01.748Z,80.47
2018-02-21T00:06:32.711Z,85.67
2018-02-21T00:09:03.741Z,80.12
2018-02-21T00:11:35.327Z,83.67
2018-02-21T00:14:06.620Z,77.15
2018-02-21T00:16:37.468Z,79.37
2018-02-21T00:19:08.775Z,73.85
2018-02-21T00:21:39.355Z,75.68
2018-02-21T00:24:09.877Z,75.37
2018-02-21T00:26:41.111Z,75.10
2018-02-21T00:29:12.742Z,72.80
2018-02-21T00:31:44.014Z,80.00
2018-02-21T00:34:14.483Z,78.07
2018-02-21T00:36:45.476Z,78.90
2018-02-21T00:39:16.191Z,70.85
2018-02-21T00:41:46.990Z,74.23
2018-02-21T00:44:17.678Z,79.75
2018-02-21T00:46:49.877Z,79.00
2018-02-21T00:49:20.931Z,71.82
2018-02-21T00:51:51.139Z,75.57
2018-02-21T00:54:21.421Z,77.72
2018-02-21T00:56:52.084Z,77.35
2018-02-21T00:59:23.502Z,82.37
2018-02-21T01:01:53.780Z,80.90
2018-02-21T01:04:24.804Z,74.85
2018-02-21T01:06:56.131Z,78.80
2018-02-21T01:09:27.630Z,73.47
2018-02-21T01:11:59.542Z,80.78
2018-02-21T01:14:30.305Z,75.55
2018-02-21T01:17:01.380Z,71.90
2018-02-21T01:19:32.271Z,73.25
2018-02-21T01:22:02.661Z,75.93
2018-02-21T01:24:33.033Z,72.62
2018-02-21T01:27:04.166Z,77.45
2018-02-21T01:29:35.360Z,75.15
2018-02-21T01:32:06.547Z,75.10
2018-02-21T01:34:37.512Z,72.30
2018-02-21T01:37:08.696Z,71.72
2018-02-21T01:39:39.481Z,77.23
2018-02-21T01:42:12.264Z,80.12
2018-02-21T01:44:43.280Z,83.57
2018-02-21T01:47:14.202Z,87.50
2018-02-21T01:49:45.166Z,84.75
2018-02-21T01:52:16.108Z,82.90
2018-02-21T01:54:47.647Z,82.60
2018-02-21T01:57:19.638Z,84.40
2018-02-21T01:59:51.169Z,85.95
2018-02-21T02:02:22.032Z,88.05
2018-02-21T02:04:52.628Z,88.07
2018-02-21T02:07:23.295Z,93.03
2018-02-21T02:09:55.278Z,86.78
2018-02-21T02:12:25.963Z,83.70
2018-02-21T02:14:56.696Z,85.43
2018-02-21T02:17:27.450Z,84.62
2018-02-21T02:19:58.942Z,86.37
2018-02-21T02:22:29.635Z,84.73
2018-02-21T02:25:00.332Z,92.03
2018-02-21T02:27:31.700Z,82.43
2018-02-21T02:30:03.048Z,80.10
2018-02-21T02:32:34.773Z,80.68
2018-02-21T02:35:06.425Z,86.95
2018-02-21T02:37:37.698Z,88.40
2018-02-21T02:40:09.558Z,88.25
2018-02-21T02:42:40.739Z,95.47
2018-02-21T02:45:12.358Z,99.55
2018-02-21T02:47:43.543Z,94.53
2018-02-21T02:50:14.658Z,93.25
2018-02-21T02:52:46.606Z,94.07
2018-02-21T02:55:18.114Z,94.25
2018-02-21T02:57:49.119Z,92.75
2018-02-21T03:00:21.099Z,104.00
2018-02-21T03:02:51.855Z,102.25
2018-02-21T03:05:23.685Z,94.57
2018-02-21T03:07:54.630Z,98.32
2018-02-21T03:10:26.246Z,94.10
2018-02-21T03:12:57.996Z,91.03
2018-02-21T03:15:28.818Z,97.45
2018-02-21T03:17:59.715Z,98.53
2018-02-21T03:20:30.465Z,105.60
2018-02-21T03:23:02.171Z,100.70
2018-02-21T03:25:33.308Z,99.32
2018-02-21T03:28:03.681Z,101.10
2018-02-21T03:30:34.091Z,111.03
2018-02-21T03:33:04.300Z,98.87
2018-02-21T03:35:34.910Z,108.32
2018-02-21T03:38:06.008Z,108.05
2018-02-21T03:40:36.733Z,108.95
2018-02-21T03:43:07.839Z,104.95
2018-02-21T03:45:38.974Z,110.03
2018-02-21T03:48:10.234Z,100.78
2018-02-21T03:50:41.430Z,101.07
2018-02-21T03:53:12.671Z,107.97
2018-02-21T03:55:43.384Z,107.32
2018-02-21T03:58:14.252Z,105.97
2018-02-21T04:00:45.685Z,108.97
2018-02-21T04:03:16.805Z,111.37
2018-02-21T04:05:47.684Z,102.18
2018-02-21T04:08:17.883Z,103.20
2018-02-21T04:10:48.492Z,99.40
2018-02-21T04:13:19.254Z,101.32
2018-02-21T04:15:49.990Z,100.12
2018-02-21T04:18:20.635Z,105.22
2018-02-21T04:20:51.319Z,97.30
2018-02-21T04:23:23.524Z,101.35
2018-02-21T04:25:54.808Z,92.93
2018-02-21T04:28:25.955Z,104.50
2018-02-21T04:30:57.882Z,95.43
2018-02-21T04:33:29.756Z,105.95
2018-02-21T04:36:00.928Z,101.72
2018-02-21T04:38:31.761Z,110.95
2018-02-21T04:41:03.033Z,106.47
2018-02-21T04:43:33.892Z,120.40
2018-02-21T04:46:04.892Z,125.80
2018-02-21T04:48:35.964Z,117.23
2018-02-21T04:51:08.644Z,98.32
2018-02-21T04:53:40.203Z,90.53
2018-02-21T04:56:10.959Z,86.57
2018-02-21T04:58:42.045Z,104.45
2018-02-21T05:01:12.887Z,90.55
2018-02-21T05:03:44.414Z,88.90
2018-02-21T05:06:16.638Z,100.05
2018-02-21T05:08:47.902Z,86.65
2018-02-21T05:11:18.361Z,87.28
2018-02-21T05:13:49.052Z,78.53
2018-02-21T05:16:19.843Z,77.20
2018-02-21T05:18:52.388Z,73.37
2018-02-21T05:21:24.933Z,72.47
2018-02-21T05:23:55.674Z,63.60
2018-02-21T05:26:26.604Z,73.07
2018-02-21T05:28:57.174Z,68.12
2018-02-21T05:31:28.330Z,71.65
2018-02-21T05:33:59.391Z,73.57
2018-02-21T05:36:30.509Z,74.90
2018-02-21T05:39:01.384Z,77.07
2018-02-21T05:41:33.235Z,90.80
2018-02-21T05:44:04.307Z,88.32
2018-02-21T05:46:35.541Z,78.53
2018-02-21T05:49:07.271Z,70.07
2018-02-21T05:51:45.604Z,71.37
2018-02-21T05:54:17.096Z,72.33
2018-02-21T05:56:50.578Z,70.87
2018-02-21T05:59:28.334Z,66.12
2018-02-21T06:02:00.727Z,67.85
2018-02-21T06:04:34.563Z,64.22
2018-02-21T06:07:10.245Z,68.73
2018-02-21T06:09:42.388Z,67.62
2018-02-21T06:12:13.979Z,68.05
2018-02-21T06:14:49.245Z,67.70
2018-02-21T06:17:21.533Z,60.28
2018-02-21T06:19:55.536Z,68.35
2018-02-21T06:22:26.464Z,57.23
2018-02-21T06:24:57.101Z,63.20
2018-02-21T06:27:27.911Z,61.33
2018-02-21T06:30:24.470Z,63.72
2018-02-21T06:32:55.915Z,65.70
2018-02-21T06:35:37.506Z,75.87
2018-02-21T06:38:39.457Z,76.32
2018-02-21T06:41:13.775Z,74.25
2018-02-21T06:43:44.620Z,78.70
2018-02-21T06:46:17.116Z,67.80
2018-02-21T06:48:50.748Z,74.55
2018-02-21T06:51:24.128Z,71.12
2018-02-21T06:57:23.573Z,75.78
2018-02-21T07:00:13.103Z,69.78
2018-02-21T07:02:43.503Z,68.03
2018-02-21T07:05:20.846Z,73.70
2018-02-21T07:15:02.725Z,76.37
2018-02-21T07:17:35.877Z,76.47
2018-02-21T07:23:09.069Z,80.20
2018-02-21T07:25:39.828Z,68.37
2018-02-21T07:28:11.319Z,73.70
2018-02-21T07:32:06.339Z,74.30
2018-02-21T07:34:36.830Z,74.50
2018-02-21T07:37:07.434Z,80.35
2018-02-21T07:39:38.795Z,72.47
2018-02-21T07:42:09.733Z,77.93
2018-02-21T07:44:43.432Z,75.00
2018-02-21T07:47:48.215Z,79.50
2018-02-21T07:50:19.716Z,71.53
2018-02-21T07:52:51.789Z,69.67
2018-02-21T07:55:23.962Z,71.53
2018-02-21T07:57:54.932Z,70.82
2018-02-21T08:00:28.034Z,71.85
2018-02-21T08:02:59.550Z,71.12
2018-02-21T08:05:34.544Z,63.95
2018-02-21T08:08:06.521Z,71.57
2018-02-21T08:10:36.702Z,76.20
2018-02-21T08:13:08.789Z,66.30
2018-02-21T08:15:49.630Z,72.78
2018-02-21T08:18:22.834Z,76.25
2018-02-21T08:20:54.322Z,73.37
2018-02-21T08:23:43.518Z,73.67
2018-02-21T08:26:14.473Z,67.72
2018-02-21T08:28:46.072Z,63.70
2018-02-21T08:31:17.251Z,64.18
2018-02-21T08:33:58.876Z,68.40
2018-02-21T08:36:56.377Z,60.30
2018-02-21T08:39:44.159Z,57.30
2018-02-21T08:42:32.228Z,63.23
2018-02-21T08:45:29.506Z,60.45
2018-02-21T08:48:04.313Z,61.30
2018-02-21T08:50:39.473Z,67.28
2018-02-21T08:53:13.560Z,67.75
2018-02-21T08:56:34.454Z,57.53
2018-02-21T09:00:24.231Z,55.60
2018-02-21T09:03:00.595Z,55.95
2018-02-21T09:05:33.093Z,56.83
2018-02-21T09:08:04.039Z,54.90
2018-02-21T09:10:35.737Z,51.83
2018-02-21T09:13:06.691Z,56.95
2018-02-21T09:15:37.501Z,60.35
2018-02-21T09:18:08.192Z,55.13
2018-02-21T09:20:39.471Z,54.17
2018-02-21T09:23:10.630Z,56.33
2018-02-21T09:25:44.457Z,55.83
2018-02-21T09:28:18.080Z,54.80
2018-02-21T09:30:49.585Z,61.37
2018-02-21T09:33:20.994Z,56.00
2018-02-21T09:35:56.523Z,61.23
2018-02-21T09:38:29.971Z,57.60
2018-02-21T09:41:01.750Z,61.47
2018-02-21T09:43:32.548Z,66.50
2018-02-21T09:46:44.667Z,67.87
2018-02-21T09:49:30.617Z,61.60
2018-02-21T09:52:01.594Z,64.60
2018-02-21T09:54:38.637Z,57.75
2018-02-21T09:57:13.118Z,67.85
2018-02-21T09:59:45.363Z,66.15
2018-02-21T10:02:21.811Z,65.72
2018-02-21T10:04:52.906Z,68.32
2018-02-21T10:07:23.689Z,59.95
2018-02-21T10:09:57.837Z,67.20
2018-02-21T10:12:30.114Z,63.97
2018-02-21T10:15:01.212Z,63.95
2018-02-21T10:21:08.301Z,63.55
2018-02-21T10:23:39.137Z,66.93
2018-02-21T10:26:10.717Z,69.28
2018-02-21T10:28:42.281Z,68.47
2018-02-21T10:31:12.967Z,69.72
2018-02-21T10:33:45.902Z,70.28
2018-02-21T10:36:17.338Z,69.18
2018-02-21T10:38:47.801Z,73.78
2018-02-21T10:41:19.210Z,64.43
2018-02-21T10:43:50.774Z,66.10
2018-02-21T10:46:22.705Z,68.05
2018-02-21T10:49:15.217Z,66.50
2018-02-21T10:51:45.902Z,73.03
2018-02-21T10:54:20.695Z,68.53
2018-02-21T10:56:53.603Z,71.40
2018-02-21T10:59:25.259Z,69.00
2018-02-21T11:01:57.720Z,68.75
2018-02-21T11:04:42.765Z,67.40
2018-02-21T11:10:54.643Z,67.72
2018-02-21T11:13:24.982Z,66.80
2018-02-21T11:15:57.139Z,68.82
2018-02-21T11:18:33.744Z,72.00
2018-02-21T11:21:04.967Z,68.55
2018-02-21T11:23:36.232Z,74.12
2018-02-21T11:26:07.362Z,68.00
2018-02-21T11:28:40.291Z,67.30
2018-02-21T11:34:55.940Z,69.97
2018-02-21T11:37:28.583Z,71.43
2018-02-21T11:40:00.536Z,79.93
2018-02-21T11:42:31.204Z,72.33
2018-02-21T11:45:44.512Z,66.83
2018-02-21T11:48:17.656Z,74.53
2018-02-21T11:50:51.097Z,72.68
2018-02-21T11:53:32.933Z,73.12
2018-02-21T11:56:04.590Z,76.68
2018-02-21T11:58:39.999Z,74.30
2018-02-21T12:01:16.832Z,76.87
2018-02-21T12:03:48.254Z,75.87
2018-02-21T12:06:19.334Z,75.12
2018-02-21T12:08:51.047Z,76.57
2018-02-21T12:12:01.104Z,80.60
2018-02-21T12:14:36.408Z,74.33
2018-02-21T12:17:07.175Z,67.57
2018-02-21T12:19:56.614Z,74.22
2018-02-21T12:22:27.843Z,74.53
2018-02-21T12:25:02.933Z,72.07
2018-02-21T12:27:34.423Z,79.47
2018-02-21T12:30:06.026Z,71.72
2018-02-21T12:32:37.411Z,74.68
2018-02-21T12:35:07.633Z,68.55
2018-02-21T12:37:39.246Z,73.10
2018-02-21T12:40:14.575Z,69.97
2018-02-21T12:42:48.149Z,66.32
2018-02-21T12:45:26.629Z,73.70
2018-02-21T12:48:01.053Z,67.65
2018-02-21T12:50:32.025Z,60.88
2018-02-21T12:53:50.846Z,67.28
2018-02-21T12:57:12.532Z,76.70
2018-02-21T12:59:55.270Z,71.83
2018-02-21T13:02:43.518Z,68.40
2018-02-21T13:05:19.694Z,64.28
2018-02-21T13:08:11.859Z,67.28
2018-02-21T13:10:58.122Z,69.78
2018-02-21T13:16:19.380Z,69.57
2018-02-21T13:18:53.557Z,76.30
2018-02-21T13:25:00.143Z,63.17
2018-02-21T13:27:31.520Z,63.22
2018-02-21T13:30:24.423Z,59.15
2018-02-21T13:32:57.543Z,62.60
2018-02-21T13:35:28.581Z,65.47
2018-02-21T13:37:59.615Z,57.20
2018-02-21T13:40:36.827Z,65.95
2018-02-21T13:43:15.211Z,65.43
2018-02-21T13:45:48.305Z,68.72
2018-02-21T13:48:22.908Z,66.82
2018-02-21T13:51:25.346Z,65.70
2018-02-21T13:54:01.823Z,65.53
2018-02-21T13:56:51.053Z,67.12
2018-02-21T13:59:27.457Z,64.68
2018-02-21T14:02:09.441Z,67.80
2018-02-21T14:04:45.173Z,66.82
2018-02-21T14:07:50.254Z,64.53
2018-02-21T14:10:29.225Z,68.30
2018-02-21T14:13:38.295Z,66.82
2018-02-21T14:16:14.331Z,73.07
2018-02-21T14:19:08.488Z,69.05
2018-02-21T14:21:40.856Z,72.55
2018-02-21T14:24:12.207Z,65.37
2018-02-21T14:27:21.953Z,62.40
2018-02-21T14:30:09.126Z,59.15
2018-02-21T14:33:32.584Z,60.83
2018-02-21T14:36:39.376Z,57.00
2018-02-21T14:39:29.956Z,57.50
2018-02-21T14:42:08.367Z,58.65
2018-02-21T14:44:42.187Z,56.03
2018-02-21T14:47:21.765Z,55.83
2018-02-21T14:50:23.983Z,58.40
2018-02-21T14:53:05.531Z,63.70
2018-02-21T14:56:15.625Z,67.72
2018-02-21T14:58:55.930Z,58.13
2018-02-21T15:01:34.445Z,62.72
2018-02-21T15:04:06.014Z,64.62
2018-02-21T15:06:55.223Z,63.43
2018-02-21T15:09:36.310Z,69.18
2018-02-21T15:12:08.117Z,59.05
2018-02-21T15:15:12.623Z,62.60
2018-02-21T15:17:52.218Z,63.95
2018-02-21T15:20:30.698Z,63.47
2018-02-21T15:23:03.177Z,68.10
2018-02-21T15:26:08.859Z,69.62
2018-02-21T15:28:40.159Z,59.85
2018-02-21T15:31:21.934Z,60.58
2018-02-21T15:34:07.543Z,60.88
2018-02-21T15:37:32.823Z,68.32
2018-02-21T15:40:37.992Z,61.60
2018-02-21T15:43:18.722Z,71.25
2018-02-21T15:46:10.818Z,62.72
2018-02-21T15:51:42.138Z,71.20
2018-02-21T15:54:34.958Z,64.67
2018-02-21T15:57:09.670Z,70.50
2018-02-21T15:59:43.109Z,79.22
2018-02-21T16:02:16.022Z,72.87
2018-02-21T16:04:47.907Z,77.18
2018-02-21T16:07:21.347Z,75.60
2018-02-21T16:09:57.556Z,77.37
2018-02-21T16:13:33.758Z,77.15
2018-02-21T16:16:05.334Z,75.77
2018-02-21T16:18:36.903Z,74.87
2018-02-21T16:21:08.435Z,86.35
2018-02-21T16:23:40.438Z,72.50
2018-02-21T16:26:11.390Z,82.83
2018-02-21T16:28:43.669Z,77.10
2018-02-21T16:31:27.618Z,83.90
2018-02-21T16:34:03.318Z,86.37
2018-02-21T16:36:36.054Z,82.07
2018-02-21T16:39:08.733Z,90.65
2018-02-21T16:41:42.399Z,90.38
2018-02-21T16:44:13.296Z,89.62
2018-02-21T16:46:44.338Z,87.45
2018-02-21T16:49:41.141Z,87.67
2018-02-21T16:52:13.880Z,95.35
2018-02-21T16:54:49.744Z,90.05
2018-02-21T16:57:19.978Z,93.93
2018-02-21T16:59:52.422Z,93.90
2018-02-21T17:02:23.906Z,97.28
2018-02-21T17:04:54.614Z,92.75
2018-02-21T17:07:25.898Z,106.03
2018-02-21T17:09:57.389Z,104.47
2018-02-21T17:12:28.532Z,96.43
2018-02-21T17:14:58.793Z,91.05
2018-02-21T17:17:57.488Z,92.22
2018-02-21T17:20:33.130Z,93.45
2018-02-21T17:23:03.882Z,100.35
2018-02-21T17:25:35.021Z,96.20
2018-02-21T17:28:06.467Z,92.95
2018-02-21T17:30:37.036Z,94.45
2018-02-21T17:33:08.331Z,101.40
2018-02-21T17:39:16.186Z,96.85
2018-02-21T17:41:47.646Z,106.93
2018-02-21T17:44:17.918Z,97.65
2018-02-21T17:46:48.308Z,102.82
2018-02-21T17:49:20.449Z,103.97
2018-02-21T17:51:54.749Z,102.15
2018-02-21T17:54:28.053Z,96.95
2018-02-21T17:56:58.875Z,106.73
2018-02-21T18:05:44.073Z,102.67
2018-02-21T18:08:15.475Z,95.97
2018-02-21T18:10:46.266Z,104.77
2018-02-21T18:13:16.479Z,105.80
2018-02-21T18:15:47.450Z,97.15
2018-02-21T18:18:18.348Z,106.50
2018-02-21T18:20:51.737Z,111.12
2018-02-21T18:23:22.713Z,105.28
2018-02-21T18:25:52.966Z,97.28
2018-02-21T18:28:27.056Z,108.63
2018-02-21T18:30:57.883Z,105.15
2018-02-21T18:33:30.733Z,96.12
2018-02-21T18:36:19.327Z,114.97
2018-02-21T18:38:50.844Z,106.03
2018-02-21T18:41:23.654Z,98.18
2018-02-21T18:43:58.425Z,107.60
2018-02-21T18:46:29.102Z,97.70
2018-02-21T18:49:00.166Z,83.18
2018-02-21T18:51:30.878Z,79.35
2018-02-21T18:54:01.966Z,82.65
2018-02-21T18:56:34.010Z,80.12
2018-02-21T18:59:04.975Z,82.12
2018-02-21T19:01:35.964Z,80.30
2018-02-21T19:04:06.704Z,95.50
2018-02-21T19:06:44.364Z,88.35
2018-02-21T19:09:16.446Z,79.93
2018-02-21T19:11:49.490Z,79.95
2018-02-21T19:14:20.005Z,91.18
2018-02-21T19:16:51.732Z,84.70
2018-02-21T19:19:22.206Z,90.60
2018-02-21T19:21:53.148Z,89.83
2018-02-21T19:24:23.566Z,84.25
2018-02-21T19:26:54.357Z,89.22
2018-02-21T19:29:24.937Z,80.93
2018-02-21T19:31:55.675Z,78.10
2018-02-21T19:34:30.288Z,80.40
2018-02-21T19:37:08.676Z,91.30
2018-02-21T19:39:43.069Z,85.10
2018-02-21T19:42:14.478Z,84.65
2018-02-21T19:44:45.178Z,89.85
2018-02-21T19:47:15.832Z,90.68
2018-02-21T19:49:46.931Z,81.50
2018-02-21T19:52:17.670Z,91.57
2018-02-21T19:54:49.012Z,90.38
2018-02-21T19:57:20.744Z,88.10
2018-02-21T19:59:51.210Z,84.80
2018-02-21T20:02:21.779Z,83.53
2018-02-21T20:04:52.869Z,85.20
2018-02-21T20:07:24.290Z,91.00
2018-02-21T20:09:55.016Z,90.15
2018-02-21T20:12:26.225Z,82.68
2018-02-21T20:14:57.754Z,90.47
2018-02-21T20:17:28.557Z,89.60
2018-02-21T20:20:00.189Z,86.18
2018-02-21T20:22:45.501Z,93.80
2018-02-21T20:25:26.149Z,76.77
2018-02-21T20:27:56.890Z,82.43
2018-02-21T20:30:28.366Z,90.45
2018-02-21T20:33:00.061Z,86.60
2018-02-21T20:35:30.992Z,83.10
2018-02-21T20:38:01.925Z,95.50
2018-02-21T20:40:33.599Z,84.50
2018-02-21T20:43:03.948Z,84.65
2018-02-21T20:45:34.134Z,78.10
2018-02-21T20:48:07.999Z,79.07
2018-02-21T20:50:41.681Z,85.25
2018-02-21T20:53:13.370Z,80.78
2018-02-21T20:55:44.468Z,82.07
2018-02-21T20:58:16.750Z,83.68
2018-02-21T21:00:48.055Z,89.90
2018-02-21T21:03:19.186Z,82.88
2018-02-21T21:05:49.429Z,90.80
2018-02-21T21:08:20.855Z,88.32
2018-02-21T21:10:52.421Z,93.10
2018-02-21T21:13:35.053Z,98.80
2018-02-21T21:16:08.102Z,87.72
2018-02-21T21:18:39.086Z,81.60
2018-02-21T21:21:09.404Z,83.18
2018-02-21T21:23:40.331Z,85.22
2018-02-21T21:26:10.475Z,85.83
2018-02-21T21:28:41.150Z,82.68
2018-02-21T21:31:13.114Z,80.90
2018-02-21T21:33:43.922Z,96.70
2018-02-21T21:36:14.709Z,79.73
2018-02-21T21:38:44.946Z,87.22
2018-02-21T21:41:16.344Z,86.95
2018-02-21T21:43:48.292Z,85.05
2018-02-21T21:49:36.909Z,81.90
2018-02-21T21:52:13.178Z,82.45
2018-02-21T21:54:45.872Z,81.68
2018-02-21T21:57:17.658Z,84.63
2018-02-21T21:59:50.286Z,78.78
2018-02-21T22:02:25.671Z,84.53
2018-02-21T22:04:57.246Z,86.40
2018-02-21T22:07:28.526Z,82.20
2018-02-21T22:09:59.969Z,87.47
2018-02-21T22:12:38.767Z,82.65
2018-02-21T22:15:10.404Z,83.75
2018-02-21T22:17:42.258Z,86.45
2018-02-21T22:20:18.538Z,83.12
2018-02-21T22:22:49.671Z,88.47
2018-02-21T22:25:21.242Z,79.25
2018-02-21T22:27:52.989Z,84.53
2018-02-21T22:30:24.819Z,75.93
2018-02-21T22:34:20.298Z,82.07
2018-02-21T22:36:51.319Z,83.90
2018-02-21T22:39:22.129Z,77.25
2018-02-21T22:41:53.321Z,82.75
2018-02-21T22:44:23.995Z,85.28
2018-02-21T22:46:55.019Z,78.37
2018-02-21T22:49:25.718Z,78.00
2018-02-21T22:51:57.207Z,75.25
2018-02-21T22:54:28.274Z,74.05
2018-02-21T22:56:59.026Z,69.07
2018-02-21T22:59:30.222Z,69.93
2018-02-21T23:02:01.162Z,77.83
2018-02-21T23:04:31.389Z,72.72
2018-02-21T23:07:02.631Z,79.20
2018-02-21T23:09:32.765Z,77.47
2018-02-21T23:12:04.181Z,67.37
2018-02-21T23:14:35.642Z,73.23
2018-02-21T23:17:07.192Z,78.97
2018-02-21T23:19:38.333Z,75.12
2018-02-21T23:22:09.491Z,75.78
2018-02-21T23:24:40.394Z,82.43
2018-02-21T23:27:12.185Z,78.17
2018-02-21T23:29:42.949Z,72.25
2018-02-21T23:32:13.269Z,74.55
2018-02-21T23:34:43.574Z,80.78
2018-02-21T23:37:15.070Z,81.32
2018-02-21T23:39:45.750Z,81.05
2018-02-21T23:42:16.854Z,76.30
2018-02-21T23:44:47.607Z,77.75
2018-02-21T23:47:18.299Z,77.62
2018-02-21T23:49:48.942Z,79.17
2018-02-21T23:52:20.086Z,75.72
2018-02-21T23:54:51.797Z,75.33
2018-02-21T23:57:22.778Z,78.47
2018-02-21T23:59:54.576Z,82.28
